createdAt,value
2019-02-05T00:00:38.604Z,168.75
2019-02-05T00:03:11.595Z,178.25
2019-02-05T00:05:43.406Z,176.50
2019-02-05T00:08:16.545Z,179.25
2019-02-05T00:10:47.924Z,162.75
2019-02-05T00:13:19.824Z,185.50
2019-02-05T00:15:51.471Z,170.50
2019-02-05T00:18:23.094Z,170.25
2019-02-05T00:20:55.745Z,179.25
2019-02-05T00:23:27.590Z,158.50
2019-02-05T00:26:05.907Z,154.00
2019-02-05T00:28:32.741Z,159.50
2019-02-05T00:31:05.534Z,158.50
2019-02-05T00:33:37.055Z,168.50
2019-02-05T00:36:08.520Z,167.25
2019-02-05T00:38:40.050Z,165.25
2019-02-05T00:41:11.953Z,169.50
2019-02-05T00:43:43.518Z,164.00
2019-02-05T00:46:15.458Z,160.50
2019-02-05T00:48:47.433Z,156.75
2019-02-05T00:51:18.685Z,157.75
2019-02-05T00:53:50.062Z,154.25
2019-02-05T00:56:21.379Z,160.00
2019-02-05T00:58:53.789Z,152.75
2019-02-05T01:01:25.321Z,157.75
2019-02-05T01:03:56.668Z,163.75
2019-02-05T01:06:28.337Z,161.00
2019-02-05T01:08:59.981Z,152.50
2019-02-05T01:11:31.396Z,155.75
2019-02-05T01:14:03.544Z,159.50
2019-02-05T01:16:37.663Z,160.25
2019-02-05T01:19:09.466Z,161.75
2019-02-05T01:21:41.151Z,159.75
2019-02-05T01:24:12.836Z,163.75
2019-02-05T01:26:44.568Z,162.00
2019-02-05T01:29:16.718Z,155.25
2019-02-05T01:31:48.303Z,159.50
2019-02-05T01:34:20.005Z,162.50
2019-02-05T01:36:51.575Z,161.75
2019-02-05T01:39:23.019Z,165.50
2019-02-05T01:41:54.617Z,161.00
2019-02-05T01:44:26.302Z,166.75
2019-02-05T01:46:57.375Z,168.50
2019-02-05T01:49:28.575Z,147.00
2019-02-05T01:52:00.248Z,157.75
2019-02-05T01:54:31.810Z,169.00
2019-02-05T01:57:03.320Z,161.25
2019-02-05T01:59:34.975Z,164.25
2019-02-05T02:02:06.753Z,156.25
2019-02-05T02:04:38.390Z,170.00
2019-02-05T02:07:10.063Z,164.25
2019-02-05T02:09:41.469Z,170.50
2019-02-05T02:12:13.119Z,177.00
2019-02-05T02:14:44.752Z,165.00
2019-02-05T02:17:16.221Z,161.75
2019-02-05T02:19:47.980Z,176.50
2019-02-05T02:22:19.213Z,175.25
2019-02-05T02:24:50.882Z,170.25
2019-02-05T02:27:22.888Z,182.50
2019-02-05T02:29:54.522Z,169.75
2019-02-05T02:32:26.294Z,180.00
2019-02-05T02:34:57.757Z,181.00
2019-02-05T02:37:29.173Z,185.50
2019-02-05T02:40:01.023Z,182.50
2019-02-05T02:42:32.781Z,182.00
2019-02-05T02:45:05.102Z,184.25
2019-02-05T02:47:36.334Z,189.50
2019-02-05T02:50:08.203Z,191.75
2019-02-05T02:52:40.161Z,188.00
2019-02-05T02:55:11.738Z,202.25
2019-02-05T02:57:43.852Z,196.50
2019-02-05T03:00:17.334Z,192.00
2019-02-05T03:02:49.359Z,186.50
2019-02-05T03:05:22.633Z,198.40
2019-02-05T03:07:54.253Z,179.25
2019-02-05T03:10:32.417Z,226.00
2019-02-05T03:13:03.748Z,192.75
2019-02-05T03:15:35.322Z,205.00
2019-02-05T03:18:06.674Z,198.80
2019-02-05T03:20:38.403Z,211.60
2019-02-05T03:23:09.763Z,231.40
2019-02-05T03:25:41.411Z,224.25
2019-02-05T03:28:13.311Z,221.20
2019-02-05T03:30:44.966Z,219.00
2019-02-05T03:33:16.214Z,226.20
2019-02-05T03:35:47.682Z,208.60
2019-02-05T03:38:19.285Z,215.20
2019-02-05T03:41:09.803Z,189.60
2019-02-05T03:43:42.238Z,174.00
2019-02-05T03:46:15.143Z,177.50
2019-02-05T03:48:47.535Z,146.25
2019-02-05T03:52:05.465Z,149.25
2019-02-05T03:55:14.922Z,133.50
2019-02-05T03:58:18.887Z,127.25
2019-02-05T04:01:21.287Z,124.25
2019-02-05T04:04:38.138Z,128.50
2019-02-05T04:07:27.624Z,122.25
2019-02-05T04:10:37.365Z,123.75
2019-02-05T04:14:02.337Z,125.75
2019-02-05T04:17:22.279Z,145.00
2019-02-05T04:20:28.210Z,143.50
2019-02-05T04:23:49.305Z,148.50
2019-02-05T04:26:45.075Z,142.00
2019-02-05T04:29:47.601Z,147.75
2019-02-05T04:32:30.463Z,150.75
2019-02-05T04:35:52.631Z,141.50
2019-02-05T04:39:07.209Z,131.25
2019-02-05T04:42:03.264Z,139.00
2019-02-05T04:45:02.183Z,131.00
2019-02-05T04:48:23.052Z,135.50
2019-02-05T04:51:50.499Z,126.25
2019-02-05T04:54:34.294Z,123.75
2019-02-05T04:57:28.456Z,117.25
2019-02-05T05:00:46.660Z,122.25
2019-02-05T05:03:56.634Z,126.75
2019-02-05T05:07:08.633Z,129.75
2019-02-05T05:10:00.711Z,106.50
2019-02-05T05:12:32.903Z,104.00
2019-02-05T05:15:04.514Z,111.25
2019-02-05T05:17:36.221Z,119.25
2019-02-05T05:20:10.541Z,100.25
2019-02-05T05:22:43.347Z,118.00
2019-02-05T05:25:15.199Z,105.50
2019-02-05T05:27:46.704Z,106.00
2019-02-05T05:30:19.674Z,103.75
2019-02-05T05:32:51.377Z,94.25
2019-02-05T05:35:22.658Z,99.75
2019-02-05T05:37:54.787Z,102.75
2019-02-05T05:40:26.168Z,82.50
2019-02-05T05:42:57.627Z,96.75
2019-02-05T05:45:28.741Z,89.00
2019-02-05T05:48:00.073Z,81.80
2019-02-05T05:50:31.756Z,82.60
2019-02-05T05:53:03.287Z,90.20
2019-02-05T05:55:34.953Z,88.20
2019-02-05T05:58:06.609Z,73.40
2019-02-05T06:00:38.420Z,82.40
2019-02-05T06:03:10.204Z,84.00
2019-02-05T06:05:41.791Z,79.00
2019-02-05T06:08:13.216Z,76.40
2019-02-05T06:10:50.030Z,82.40
2019-02-05T06:13:21.127Z,76.00
2019-02-05T06:15:55.812Z,68.80
2019-02-05T06:18:31.265Z,61.40
2019-02-05T06:21:02.634Z,67.00
2019-02-05T06:23:34.008Z,72.00
2019-02-05T06:26:05.339Z,69.40
2019-02-05T06:28:38.122Z,74.00
2019-02-05T06:31:13.260Z,59.80
2019-02-05T06:33:45.153Z,63.20
2019-02-05T06:36:17.964Z,67.20
2019-02-05T06:38:49.162Z,69.00
2019-02-05T06:41:21.056Z,67.60
2019-02-05T06:43:52.293Z,64.00
2019-02-05T06:46:23.436Z,72.40
2019-02-05T06:48:55.044Z,68.60
2019-02-05T06:51:26.323Z,62.20
2019-02-05T06:53:57.463Z,60.40
2019-02-05T06:56:29.019Z,63.40
2019-02-05T06:59:00.268Z,79.80
2019-02-05T07:01:33.117Z,64.40
2019-02-05T07:04:04.822Z,55.80
2019-02-05T07:06:36.521Z,68.20
2019-02-05T07:09:11.277Z,61.00
2019-02-05T07:11:42.624Z,64.20
2019-02-05T07:14:14.032Z,56.80
2019-02-05T07:16:45.405Z,64.40
2019-02-05T07:19:16.676Z,64.00
2019-02-05T07:21:48.219Z,64.60
2019-02-05T07:24:20.869Z,74.20
2019-02-05T07:26:52.520Z,71.40
2019-02-05T07:29:24.175Z,74.40
2019-02-05T07:31:55.295Z,68.20
2019-02-05T07:34:26.514Z,67.60
2019-02-05T07:36:57.671Z,62.80
2019-02-05T07:39:28.870Z,58.60
2019-02-05T07:41:59.925Z,66.60
2019-02-05T07:44:31.432Z,43.60
2019-02-05T07:47:03.209Z,53.20
2019-02-05T07:49:34.433Z,49.20
2019-02-05T07:52:06.059Z,54.00
2019-02-05T07:54:37.297Z,51.60
2019-02-05T07:57:08.842Z,61.60
2019-02-05T07:59:40.692Z,58.60
2019-02-05T08:02:12.564Z,56.60
2019-02-05T08:04:44.062Z,61.80
2019-02-05T08:07:17.150Z,61.40
2019-02-05T08:09:48.499Z,64.80
2019-02-05T08:12:19.876Z,60.80
2019-02-05T08:14:51.937Z,57.60
2019-02-05T08:17:23.327Z,55.00
2019-02-05T08:19:55.540Z,51.80
2019-02-05T08:22:27.913Z,57.40
2019-02-05T08:25:00.456Z,60.60
2019-02-05T08:27:31.865Z,55.20
2019-02-05T08:30:03.375Z,64.60
2019-02-05T08:32:35.540Z,64.40
2019-02-05T08:35:08.352Z,56.80
2019-02-05T08:37:39.679Z,63.40
2019-02-05T08:40:14.168Z,53.20
2019-02-05T08:42:46.186Z,57.20
2019-02-05T08:45:20.403Z,56.20
2019-02-05T08:47:52.549Z,68.80
2019-02-05T08:50:27.436Z,65.80
2019-02-05T08:52:58.998Z,67.00
2019-02-05T08:55:30.992Z,66.00
2019-02-05T08:58:04.828Z,65.60
2019-02-05T09:00:38.074Z,62.40
2019-02-05T09:03:11.019Z,60.40
2019-02-05T09:05:43.122Z,64.60
2019-02-05T09:08:14.481Z,63.60
2019-02-05T09:10:46.071Z,69.20
2019-02-05T09:13:17.580Z,68.40
2019-02-05T09:15:49.197Z,71.60
2019-02-05T09:18:20.585Z,72.40
2019-02-05T09:20:52.030Z,71.60
2019-02-05T09:23:24.109Z,57.40
2019-02-05T09:25:55.987Z,69.20
2019-02-05T09:28:27.456Z,63.00
2019-02-05T09:30:58.721Z,68.00
2019-02-05T09:33:30.377Z,67.20
2019-02-05T09:36:02.478Z,64.00
2019-02-05T09:38:34.167Z,62.60
2019-02-05T09:41:05.671Z,55.80
2019-02-05T09:43:37.211Z,63.20
2019-02-05T09:46:08.650Z,57.40
2019-02-05T09:48:39.934Z,62.00
2019-02-05T09:51:11.343Z,62.20
2019-02-05T09:53:43.550Z,60.40
2019-02-05T09:56:15.655Z,58.80
2019-02-05T09:58:47.239Z,55.00
2019-02-05T10:01:18.864Z,63.00
2019-02-05T10:03:50.326Z,72.40
2019-02-05T10:06:21.818Z,69.00
2019-02-05T10:08:53.229Z,61.20
2019-02-05T10:11:24.675Z,59.20
2019-02-05T10:13:56.169Z,60.40
2019-02-05T10:16:27.369Z,65.00
2019-02-05T10:18:58.848Z,65.40
2019-02-05T10:21:30.373Z,63.60
2019-02-05T10:24:02.418Z,70.60
2019-02-05T10:26:33.713Z,73.80
2019-02-05T10:29:06.055Z,76.40
2019-02-05T10:31:40.069Z,79.20
2019-02-05T10:34:11.846Z,73.20
2019-02-05T10:36:43.174Z,77.20
2019-02-05T10:39:14.878Z,75.00
2019-02-05T10:41:46.348Z,70.60
2019-02-05T10:44:18.213Z,72.80
2019-02-05T10:46:49.993Z,70.00
2019-02-05T10:49:21.560Z,69.00
2019-02-05T10:51:53.339Z,70.40
2019-02-05T10:54:25.092Z,79.20
2019-02-05T10:56:56.740Z,69.00
2019-02-05T10:59:28.621Z,70.40
2019-02-05T11:02:00.657Z,74.40
2019-02-05T11:04:32.304Z,64.60
2019-02-05T11:07:03.883Z,68.00
2019-02-05T11:09:37.629Z,71.40
2019-02-05T11:12:11.988Z,74.20
2019-02-05T11:14:43.671Z,71.80
2019-02-05T11:17:15.116Z,66.60
2019-02-05T11:19:47.480Z,71.40
2019-02-05T11:22:19.233Z,68.00
2019-02-05T11:24:51.916Z,62.80
2019-02-05T11:27:23.534Z,68.60
2019-02-05T11:29:54.915Z,69.00
2019-02-05T11:32:26.284Z,69.60
2019-02-05T11:34:57.781Z,70.40
2019-02-05T11:37:29.085Z,67.00
2019-02-05T11:40:00.531Z,59.20
2019-02-05T11:42:32.770Z,68.00
2019-02-05T11:45:04.700Z,55.60
2019-02-05T11:47:36.662Z,63.20
2019-02-05T11:50:09.501Z,74.20
2019-02-05T11:52:40.877Z,61.20
2019-02-05T11:55:14.557Z,70.60
2019-02-05T11:57:46.405Z,69.00
2019-02-05T12:00:32.873Z,74.40
2019-02-05T12:02:59.741Z,69.40
2019-02-05T12:05:32.034Z,73.80
2019-02-05T12:08:08.049Z,81.80
2019-02-05T12:10:39.575Z,76.20
2019-02-05T12:13:11.685Z,81.60
2019-02-05T12:15:43.282Z,84.00
2019-02-05T12:18:14.828Z,83.00
2019-02-05T12:20:46.575Z,74.80
2019-02-05T12:23:17.925Z,79.80
2019-02-05T12:25:49.146Z,87.20
2019-02-05T12:28:20.599Z,97.00
2019-02-05T12:30:52.139Z,104.50
2019-02-05T12:33:23.899Z,103.75
2019-02-05T12:35:55.052Z,97.00
2019-02-05T12:38:26.458Z,108.50
2019-02-05T12:40:58.079Z,122.50
2019-02-05T12:43:29.729Z,112.50
2019-02-05T12:46:00.881Z,112.75
2019-02-05T12:48:32.798Z,104.00
2019-02-05T12:51:04.868Z,98.75
2019-02-05T12:53:38.070Z,106.50
2019-02-05T12:56:09.330Z,90.00
2019-02-05T12:58:40.717Z,95.40
2019-02-05T13:01:12.608Z,87.00
2019-02-05T13:03:43.997Z,81.00
2019-02-05T13:06:15.542Z,92.40
2019-02-05T13:08:47.260Z,92.20
2019-02-05T13:11:18.809Z,91.60
2019-02-05T13:13:50.755Z,84.40
2019-02-05T13:16:22.347Z,86.00
2019-02-05T13:18:53.810Z,82.80
2019-02-05T13:21:25.189Z,90.80
2019-02-05T13:23:56.507Z,90.80
2019-02-05T13:26:28.064Z,86.40
2019-02-05T13:28:59.402Z,94.00
2019-02-05T13:31:30.548Z,91.75
2019-02-05T13:34:02.168Z,95.80
2019-02-05T13:36:33.668Z,86.40
2019-02-05T13:39:09.676Z,92.50
2019-02-05T13:41:41.632Z,94.75
2019-02-05T13:44:13.118Z,101.50
2019-02-05T13:46:44.262Z,101.00
2019-02-05T13:49:16.113Z,95.50
2019-02-05T13:51:47.659Z,96.50
2019-02-05T13:54:19.078Z,96.75
2019-02-05T13:56:52.669Z,101.50
2019-02-05T13:59:24.176Z,90.75
2019-02-05T14:01:58.271Z,102.00
2019-02-05T14:04:29.820Z,103.25
2019-02-05T14:07:01.400Z,108.50
2019-02-05T14:09:32.811Z,98.75
2019-02-05T14:12:03.938Z,100.25
2019-02-05T14:14:35.628Z,103.00
2019-02-05T14:17:07.288Z,100.00
2019-02-05T14:19:42.300Z,98.25
2019-02-05T14:22:14.640Z,107.50
2019-02-05T14:24:45.791Z,89.25
2019-02-05T14:27:16.772Z,93.50
2019-02-05T14:29:48.199Z,105.25
2019-02-05T14:32:19.634Z,94.25
2019-02-05T14:34:51.093Z,105.25
2019-02-05T14:37:22.552Z,94.00
2019-02-05T14:40:01.638Z,92.25
2019-02-05T14:42:33.144Z,107.00
2019-02-05T14:45:05.200Z,91.00
2019-02-05T14:47:36.600Z,86.75
2019-02-05T14:50:11.404Z,101.50
2019-02-05T14:52:42.644Z,108.75
2019-02-05T14:55:14.012Z,109.25
2019-02-05T14:57:45.100Z,100.50
2019-02-05T15:00:26.190Z,107.75
2019-02-05T15:02:58.253Z,115.25
2019-02-05T15:05:29.794Z,91.50
2019-02-05T15:08:01.266Z,97.75
2019-02-05T15:10:32.984Z,98.50
2019-02-05T15:13:06.701Z,105.75
2019-02-05T15:15:38.502Z,107.50
2019-02-05T15:18:13.204Z,101.25
2019-02-05T15:20:46.924Z,107.00
2019-02-05T15:23:21.084Z,110.75
2019-02-05T15:25:52.657Z,131.75
2019-02-05T15:28:24.261Z,123.50
2019-02-05T15:30:55.615Z,109.25
2019-02-05T15:33:48.390Z,115.50
2019-02-05T15:36:33.405Z,114.00
2019-02-05T15:39:12.848Z,116.25
2019-02-05T15:41:44.045Z,108.75
2019-02-05T15:44:15.918Z,107.50
2019-02-05T15:46:47.051Z,112.75
2019-02-05T15:49:18.342Z,111.00
2019-02-05T15:51:49.913Z,107.25
2019-02-05T15:54:21.405Z,107.50
2019-02-05T15:56:53.266Z,105.00
2019-02-05T15:59:24.730Z,108.75
2019-02-05T16:02:06.063Z,110.25
2019-02-05T16:04:30.488Z,113.25
2019-02-05T16:07:01.741Z,105.00
2019-02-05T16:09:33.305Z,107.25
2019-02-05T16:12:04.649Z,107.50
2019-02-05T16:14:36.008Z,104.50
2019-02-05T16:17:07.402Z,107.75
2019-02-05T16:19:38.728Z,95.50
2019-02-05T16:22:10.464Z,98.25
2019-02-05T16:24:43.760Z,99.50
2019-02-05T16:27:15.469Z,97.25
2019-02-05T16:29:46.963Z,106.75
2019-02-05T16:32:18.240Z,102.00
2019-02-05T16:34:49.821Z,93.50
2019-02-05T16:37:21.438Z,104.50
2019-02-05T16:39:53.823Z,93.75
2019-02-05T16:42:25.380Z,98.75
2019-02-05T16:44:56.731Z,91.75
2019-02-05T16:47:28.474Z,96.20
2019-02-05T16:50:00.218Z,91.20
2019-02-05T16:52:32.114Z,90.20
2019-02-05T16:55:03.944Z,89.20
2019-02-05T16:57:35.225Z,92.80
2019-02-05T17:00:13.281Z,84.00
2019-02-05T17:02:45.475Z,89.40
2019-02-05T17:05:18.213Z,88.20
2019-02-05T17:07:49.841Z,79.20
2019-02-05T17:10:22.154Z,90.60
2019-02-05T17:12:53.511Z,83.20
2019-02-05T17:15:25.128Z,87.80
2019-02-05T17:17:56.754Z,83.00
2019-02-05T17:20:29.822Z,87.20
2019-02-05T17:23:01.651Z,86.00
2019-02-05T17:25:35.909Z,81.80
2019-02-05T17:28:06.884Z,88.20
2019-02-05T17:30:39.538Z,86.80
2019-02-05T17:33:11.536Z,84.20
2019-02-05T17:35:43.182Z,88.40
2019-02-05T17:38:15.565Z,82.60
2019-02-05T17:40:46.931Z,86.20
2019-02-05T17:43:18.650Z,87.60
2019-02-05T17:45:50.309Z,91.00
2019-02-05T17:48:21.904Z,83.20
2019-02-05T17:50:53.406Z,82.40
2019-02-05T17:53:25.180Z,88.80
2019-02-05T17:55:56.425Z,78.20
2019-02-05T17:58:27.817Z,76.00
2019-02-05T18:01:11.284Z,82.40
2019-02-05T18:03:42.857Z,84.80
2019-02-05T18:06:14.857Z,85.80
2019-02-05T18:08:46.067Z,86.20
2019-02-05T18:11:17.569Z,85.00
2019-02-05T18:13:48.782Z,74.20
2019-02-05T18:16:21.245Z,80.80
2019-02-05T18:18:52.583Z,79.40
2019-02-05T18:21:24.146Z,76.40
2019-02-05T18:23:55.667Z,78.40
2019-02-05T18:26:27.322Z,82.80
2019-02-05T18:28:58.490Z,83.20
2019-02-05T18:31:31.042Z,90.60
2019-02-05T18:34:02.226Z,77.40
2019-02-05T18:36:33.899Z,88.20
2019-02-05T18:39:07.863Z,81.60
2019-02-05T18:41:41.505Z,80.20
2019-02-05T18:44:12.872Z,84.00
2019-02-05T18:46:44.432Z,88.20
2019-02-05T18:49:15.870Z,77.80
2019-02-05T18:51:47.975Z,84.60
2019-02-05T18:54:19.561Z,76.60
2019-02-05T18:56:50.925Z,76.40
2019-02-05T18:59:22.470Z,79.40
2019-02-05T19:01:53.720Z,83.80
2019-02-05T19:04:24.942Z,77.20
2019-02-05T19:06:57.376Z,79.20
2019-02-05T19:09:28.734Z,82.80
2019-02-05T19:12:04.162Z,65.40
2019-02-05T19:14:33.183Z,77.40
2019-02-05T19:17:04.907Z,77.60
2019-02-05T19:19:36.817Z,81.00
2019-02-05T19:22:08.299Z,82.40
2019-02-05T19:25:07.625Z,75.20
2019-02-05T19:27:39.482Z,75.40
2019-02-05T19:30:12.884Z,71.20
2019-02-05T19:32:44.236Z,75.00
2019-02-05T19:35:16.111Z,66.00
2019-02-05T19:37:48.564Z,70.20
2019-02-05T19:40:20.006Z,66.80
2019-02-05T19:42:51.303Z,68.20
2019-02-05T19:45:44.632Z,75.60
2019-02-05T19:48:25.162Z,64.60
2019-02-05T19:50:56.789Z,70.20
2019-02-05T19:53:28.254Z,71.00
2019-02-05T19:55:59.948Z,67.40
2019-02-05T19:58:31.522Z,67.60
2019-02-05T20:01:03.277Z,72.60
2019-02-05T20:03:38.812Z,67.40
2019-02-05T20:06:07.426Z,69.40
2019-02-05T20:08:38.664Z,68.00
2019-02-05T20:11:11.011Z,62.40
2019-02-05T20:13:42.452Z,64.00
2019-02-05T20:16:13.728Z,66.00
2019-02-05T20:18:44.887Z,66.60
2019-02-05T20:21:16.718Z,70.80
2019-02-05T20:23:48.067Z,73.60
2019-02-05T20:26:20.018Z,68.80
2019-02-05T20:28:51.307Z,68.20
2019-02-05T20:31:23.654Z,65.40
2019-02-05T20:33:54.807Z,70.40
2019-02-05T20:36:26.151Z,69.00
2019-02-05T20:38:57.592Z,62.00
2019-02-05T20:41:29.183Z,67.00
2019-02-05T20:44:00.425Z,77.40
2019-02-05T20:46:31.922Z,65.40
2019-02-05T20:49:03.306Z,72.00
2019-02-05T20:51:37.570Z,67.40
2019-02-05T20:54:09.311Z,63.20
2019-02-05T20:56:40.867Z,67.20
2019-02-05T20:59:31.883Z,60.80
2019-02-05T21:02:03.287Z,48.20
2019-02-05T21:04:35.612Z,63.40
2019-02-05T21:07:07.516Z,66.80
2019-02-05T21:09:42.252Z,61.60
2019-02-05T21:12:14.053Z,68.60
2019-02-05T21:14:45.388Z,64.20
2019-02-05T21:17:17.262Z,60.40
2019-02-05T21:19:48.861Z,50.80
2019-02-05T21:22:20.000Z,67.80
2019-02-05T21:24:51.164Z,54.80
2019-02-05T21:27:22.578Z,57.80
2019-02-05T21:29:54.049Z,49.20
2019-02-05T21:32:25.501Z,54.80
2019-02-05T21:34:56.821Z,55.40
2019-02-05T21:37:28.270Z,53.40
2019-02-05T21:40:02.489Z,56.20
2019-02-05T21:42:33.384Z,62.00
2019-02-05T21:45:05.386Z,67.80
2019-02-05T21:47:37.304Z,54.00
2019-02-05T21:50:11.447Z,60.20
2019-02-05T21:52:43.071Z,67.20
2019-02-05T21:55:15.044Z,63.80
2019-02-05T21:57:46.504Z,68.40
2019-02-05T22:00:29.210Z,61.80
2019-02-05T22:03:00.768Z,65.20
2019-02-05T22:05:32.217Z,57.00
2019-02-05T22:08:04.187Z,57.20
2019-02-05T22:10:35.456Z,59.60
2019-02-05T22:13:07.421Z,58.00
2019-02-05T22:15:39.031Z,63.20
2019-02-05T22:18:10.384Z,53.40
2019-02-05T22:20:41.844Z,62.40
2019-02-05T22:23:13.389Z,60.00
2019-02-05T22:25:45.251Z,61.60
2019-02-05T22:28:16.517Z,53.20
2019-02-05T22:30:48.792Z,57.20
2019-02-05T22:33:20.060Z,62.00
2019-02-05T22:35:51.776Z,52.00
2019-02-05T22:38:23.941Z,56.60
2019-02-05T22:40:56.425Z,60.40
2019-02-05T22:43:27.692Z,66.60
2019-02-05T22:45:59.125Z,66.20
2019-02-05T22:48:30.941Z,59.60
2019-02-05T22:51:02.365Z,57.60
2019-02-05T22:53:33.923Z,53.40
2019-02-05T22:56:05.636Z,63.00
2019-02-05T22:58:37.299Z,56.80
2019-02-05T23:01:26.195Z,59.20
2019-02-05T23:04:18.609Z,61.00
2019-02-05T23:07:20.131Z,58.80
2019-02-05T23:10:00.375Z,56.00
2019-02-05T23:12:39.423Z,67.20
2019-02-05T23:15:28.821Z,57.60
2019-02-05T23:17:58.882Z,63.40
2019-02-05T23:20:31.004Z,63.60
2019-02-05T23:23:02.497Z,57.80
2019-02-05T23:25:34.043Z,67.00
2019-02-05T23:28:05.420Z,56.60
2019-02-05T23:30:37.011Z,54.20
2019-02-05T23:33:08.136Z,63.40
2019-02-05T23:35:42.933Z,63.00
2019-02-05T23:38:14.238Z,56.40
2019-02-05T23:40:45.473Z,59.80
2019-02-05T23:43:17.392Z,57.80
2019-02-05T23:46:00.895Z,55.40
2019-02-05T23:48:23.104Z,64.00
2019-02-05T23:50:54.531Z,51.80
2019-02-05T23:53:25.892Z,57.00
2019-02-05T23:55:58.731Z,54.40
2019-02-05T23:58:32.176Z,55.40
